sensor_id;sensor_type;location;lat;lon;timestamp;noise_LAeq;noise_LA_min;noise_LA_max;noise_LA01;noise_LA95
67398;Laerm;57728;50.448;18.824;2024-02-23T00:01:18;34.59;33.42;40.99;;
67398;Laerm;57728;50.448;18.824;2024-02-23T00:03:20;34.51;33.41;40.91;;
67398;Laerm;57728;50.448;18.824;2024-02-23T00:05:21;34.46;33.21;40.11;;
67398;Laerm;57728;50.448;18.824;2024-02-23T00:07:22;34.37;33.35;38.33;;
67398;Laerm;57728;50.448;18.824;2024-02-23T00:09:24;34.47;33.25;41.09;;
67398;Laerm;57728;50.448;18.824;2024-02-23T00:11:26;34.41;33.30;39.40;;
67398;Laerm;57728;50.448;18.824;2024-02-23T00:13:29;34.37;33.24;38.42;;
67398;Laerm;57728;50.448;18.824;2024-02-23T00:15:30;34.59;33.35;44.15;;
67398;Laerm;57728;50.448;18.824;2024-02-23T00:17:31;34.56;33.32;43.46;;
67398;Laerm;57728;50.448;18.824;2024-02-23T00:19:32;34.63;33.32;43.75;;
67398;Laerm;57728;50.448;18.824;2024-02-23T00:21:35;34.66;33.35;42.16;;
67398;Laerm;57728;50.448;18.824;2024-02-23T00:23:37;34.54;33.30;39.15;;
67398;Laerm;57728;50.448;18.824;2024-02-23T00:25:38;34.88;33.52;47.18;;
67398;Laerm;57728;50.448;18.824;2024-02-23T00:27:40;34.64;33.41;38.32;;
67398;Laerm;57728;50.448;18.824;2024-02-23T00:29:42;34.70;33.53;37.74;;
67398;Laerm;57728;50.448;18.824;2024-02-23T00:31:43;34.73;33.70;38.14;;
67398;Laerm;57728;50.448;18.824;2024-02-23T00:33:48;34.78;33.60;36.11;;
67398;Laerm;57728;50.448;18.824;2024-02-23T00:35:49;34.94;33.64;37.25;;
67398;Laerm;57728;50.448;18.824;2024-02-23T00:37:50;35.13;33.92;41.21;;
67398;Laerm;57728;50.448;18.824;2024-02-23T00:39:52;35.18;33.98;37.21;;
67398;Laerm;57728;50.448;18.824;2024-02-23T00:41:53;35.27;34.00;42.58;;
67398;Laerm;57728;50.448;18.824;2024-02-23T00:43:54;35.36;34.12;36.60;;
67398;Laerm;57728;50.448;18.824;2024-02-23T00:45:56;35.55;34.23;38.47;;
67398;Laerm;57728;50.448;18.824;2024-02-23T00:47:57;35.69;34.43;36.74;;
67398;Laerm;57728;50.448;18.824;2024-02-23T00:49:58;35.70;34.34;36.76;;
67398;Laerm;57728;50.448;18.824;2024-02-23T00:52:00;35.81;34.38;41.50;;
67398;Laerm;57728;50.448;18.824;2024-02-23T00:54:01;35.97;34.76;43.59;;
67398;Laerm;57728;50.448;18.824;2024-02-23T00:56:02;36.02;34.80;38.18;;
67398;Laerm;57728;50.448;18.824;2024-02-23T00:58:04;36.01;34.74;37.25;;
67398;Laerm;57728;50.448;18.824;2024-02-23T01:00:06;36.07;34.78;39.36;;
67398;Laerm;57728;50.448;18.824;2024-02-23T01:02:07;36.12;34.63;47.00;;
67398;Laerm;57728;50.448;18.824;2024-02-23T01:04:09;36.03;34.64;39.97;;
67398;Laerm;57728;50.448;18.824;2024-02-23T01:06:10;36.03;34.52;44.08;;
67398;Laerm;57728;50.448;18.824;2024-02-23T01:08:11;36.30;34.75;47.40;;
67398;Laerm;57728;50.448;18.824;2024-02-23T01:10:13;36.50;34.76;45.52;;
67398;Laerm;57728;50.448;18.824;2024-02-23T01:12:14;36.54;34.58;47.01;;
67398;Laerm;57728;50.448;18.824;2024-02-23T01:14:15;36.50;34.50;42.42;;
67398;Laerm;57728;50.448;18.824;2024-02-23T01:16:17;37.17;35.03;61.28;;
67398;Laerm;57728;50.448;18.824;2024-02-23T01:18:18;36.69;34.75;47.49;;
67398;Laerm;57728;50.448;18.824;2024-02-23T01:20:19;36.76;35.08;43.59;;
67398;Laerm;57728;50.448;18.824;2024-02-23T01:22:21;37.21;35.32;44.05;;
67398;Laerm;57728;50.448;18.824;2024-02-23T01:24:22;37.38;34.77;45.88;;
67398;Laerm;57728;50.448;18.824;2024-02-23T01:26:24;37.61;35.12;45.08;;
67398;Laerm;57728;50.448;18.824;2024-02-23T01:28:25;37.91;35.46;46.13;;
67398;Laerm;57728;50.448;18.824;2024-02-23T01:30:26;37.94;34.96;44.13;;
67398;Laerm;57728;50.448;18.824;2024-02-23T01:32:28;38.03;35.54;45.39;;
67398;Laerm;57728;50.448;18.824;2024-02-23T01:34:30;37.98;35.21;45.12;;
67398;Laerm;57728;50.448;18.824;2024-02-23T01:36:31;38.20;35.36;48.90;;
67398;Laerm;57728;50.448;18.824;2024-02-23T01:38:32;38.51;35.72;46.12;;
67398;Laerm;57728;50.448;18.824;2024-02-23T01:40:34;38.60;35.69;43.69;;
67398;Laerm;57728;50.448;18.824;2024-02-23T01:42:35;38.87;36.11;46.27;;
67398;Laerm;57728;50.448;18.824;2024-02-23T01:44:37;38.69;35.76;44.45;;
67398;Laerm;57728;50.448;18.824;2024-02-23T01:46:38;38.73;36.06;45.96;;
67398;Laerm;57728;50.448;18.824;2024-02-23T01:48:40;38.92;36.13;58.26;;
67398;Laerm;57728;50.448;18.824;2024-02-23T01:50:42;38.75;35.85;42.68;;
67398;Laerm;57728;50.448;18.824;2024-02-23T01:52:44;38.88;36.05;51.80;;
67398;Laerm;57728;50.448;18.824;2024-02-23T01:54:46;38.90;36.79;41.04;;
67398;Laerm;57728;50.448;18.824;2024-02-23T01:56:47;39.01;36.46;48.36;;
67398;Laerm;57728;50.448;18.824;2024-02-23T01:58:49;38.97;36.31;47.77;;
67398;Laerm;57728;50.448;18.824;2024-02-23T02:00:50;38.86;35.97;40.72;;
67398;Laerm;57728;50.448;18.824;2024-02-23T02:02:51;38.84;36.02;42.42;;
67398;Laerm;57728;50.448;18.824;2024-02-23T02:04:54;38.83;36.05;46.22;;
67398;Laerm;57728;50.448;18.824;2024-02-23T02:07:00;38.77;35.93;40.88;;
67398;Laerm;57728;50.448;18.824;2024-02-23T02:09:02;38.75;35.94;47.70;;
67398;Laerm;57728;50.448;18.824;2024-02-23T02:11:04;38.78;35.50;46.54;;
67398;Laerm;57728;50.448;18.824;2024-02-23T02:13:05;38.79;35.58;48.00;;
67398;Laerm;57728;50.448;18.824;2024-02-23T02:15:08;38.63;35.75;45.03;;
67398;Laerm;57728;50.448;18.824;2024-02-23T02:17:09;38.67;35.63;41.01;;
67398;Laerm;57728;50.448;18.824;2024-02-23T02:19:11;38.63;35.62;40.63;;
67398;Laerm;57728;50.448;18.824;2024-02-23T02:21:13;38.37;35.61;40.95;;
67398;Laerm;57728;50.448;18.824;2024-02-23T02:23:14;38.41;35.62;42.79;;
67398;Laerm;57728;50.448;18.824;2024-02-23T02:25:15;38.61;35.66;49.78;;
67398;Laerm;57728;50.448;18.824;2024-02-23T02:27:17;38.57;35.46;48.26;;
67398;Laerm;57728;50.448;18.824;2024-02-23T02:29:18;38.38;35.67;46.96;;
67398;Laerm;57728;50.448;18.824;2024-02-23T02:31:20;38.48;35.38;47.27;;
67398;Laerm;57728;50.448;18.824;2024-02-23T02:33:22;38.35;35.37;45.83;;
67398;Laerm;57728;50.448;18.824;2024-02-23T02:35:23;38.48;35.64;43.54;;
67398;Laerm;57728;50.448;18.824;2024-02-23T02:37:24;38.34;34.97;41.86;;
67398;Laerm;57728;50.448;18.824;2024-02-23T02:39:27;38.46;35.64;43.18;;
67398;Laerm;57728;50.448;18.824;2024-02-23T02:41:29;38.35;35.40;45.19;;
67398;Laerm;57728;50.448;18.824;2024-02-23T02:43:32;38.32;35.35;46.95;;
67398;Laerm;57728;50.448;18.824;2024-02-23T02:45:34;38.56;35.52;46.52;;
67398;Laerm;57728;50.448;18.824;2024-02-23T02:47:35;38.78;35.75;51.24;;
67398;Laerm;57728;50.448;18.824;2024-02-23T02:49:42;38.76;35.80;43.42;;
67398;Laerm;57728;50.448;18.824;2024-02-23T02:51:44;38.57;35.78;46.36;;
67398;Laerm;57728;50.448;18.824;2024-02-23T02:53:46;38.36;35.41;42.36;;
67398;Laerm;57728;50.448;18.824;2024-02-23T02:55:47;38.21;35.10;54.37;;
67398;Laerm;57728;50.448;18.824;2024-02-23T02:57:49;38.24;35.25;44.47;;
67398;Laerm;57728;50.448;18.824;2024-02-23T02:59:50;38.28;35.37;48.45;;
67398;Laerm;57728;50.448;18.824;2024-02-23T03:01:51;38.19;35.43;45.22;;
67398;Laerm;57728;50.448;18.824;2024-02-23T03:03:53;38.13;35.15;46.94;;
67398;Laerm;57728;50.448;18.824;2024-02-23T03:05:54;38.44;35.58;49.31;;
67398;Laerm;57728;50.448;18.824;2024-02-23T03:07:55;38.49;35.46;46.17;;
67398;Laerm;57728;50.448;18.824;2024-02-23T03:09:57;38.66;35.68;44.81;;
67398;Laerm;57728;50.448;18.824;2024-02-23T03:11:58;38.64;35.65;50.57;;
67398;Laerm;57728;50.448;18.824;2024-02-23T03:13:59;38.87;35.90;56.20;;
67398;Laerm;57728;50.448;18.824;2024-02-23T03:16:00;39.00;36.04;44.40;;
67398;Laerm;57728;50.448;18.824;2024-02-23T03:18:02;39.09;35.88;42.91;;
67398;Laerm;57728;50.448;18.824;2024-02-23T03:20:05;39.63;36.65;42.78;;
67398;Laerm;57728;50.448;18.824;2024-02-23T03:22:10;39.59;35.52;43.41;;
67398;Laerm;57728;50.448;18.824;2024-02-23T03:24:11;39.62;36.32;44.69;;
67398;Laerm;57728;50.448;18.824;2024-02-23T03:26:12;39.70;36.11;52.47;;
67398;Laerm;57728;50.448;18.824;2024-02-23T03:28:14;39.05;36.05;44.01;;
67398;Laerm;57728;50.448;18.824;2024-02-23T03:30:15;39.06;35.88;44.77;;
67398;Laerm;57728;50.448;18.824;2024-02-23T03:32:16;39.22;35.94;46.30;;
67398;Laerm;57728;50.448;18.824;2024-02-23T03:34:19;39.39;36.28;41.46;;
67398;Laerm;57728;50.448;18.824;2024-02-23T03:36:20;39.46;35.99;41.47;;
67398;Laerm;57728;50.448;18.824;2024-02-23T03:38:21;39.12;35.62;47.83;;
67398;Laerm;57728;50.448;18.824;2024-02-23T03:40:23;39.07;36.12;48.72;;
67398;Laerm;57728;50.448;18.824;2024-02-23T03:42:24;38.99;35.47;46.20;;
67398;Laerm;57728;50.448;18.824;2024-02-23T03:44:25;39.02;35.92;46.47;;
67398;Laerm;57728;50.448;18.824;2024-02-23T03:46:27;39.10;36.33;52.31;;
67398;Laerm;57728;50.448;18.824;2024-02-23T03:48:28;38.99;35.75;48.35;;
67398;Laerm;57728;50.448;18.824;2024-02-23T03:50:30;38.98;35.60;41.95;;
67398;Laerm;57728;50.448;18.824;2024-02-23T03:52:32;39.15;36.27;44.28;;
67398;Laerm;57728;50.448;18.824;2024-02-23T03:54:33;39.02;35.81;41.60;;
67398;Laerm;57728;50.448;18.824;2024-02-23T03:56:41;38.92;35.64;44.55;;
67398;Laerm;57728;50.448;18.824;2024-02-23T03:58:43;38.98;35.61;47.08;;
67398;Laerm;57728;50.448;18.824;2024-02-23T04:00:44;39.09;35.70;41.17;;
67398;Laerm;57728;50.448;18.824;2024-02-23T04:02:46;38.97;35.71;42.74;;
67398;Laerm;57728;50.448;18.824;2024-02-23T04:04:48;38.87;35.44;44.91;;
67398;Laerm;57728;50.448;18.824;2024-02-23T04:06:51;38.93;35.64;48.13;;
67398;Laerm;57728;50.448;18.824;2024-02-23T04:08:52;38.77;35.97;55.70;;
67398;Laerm;57728;50.448;18.824;2024-02-23T04:10:54;38.95;35.98;51.91;;
67398;Laerm;57728;50.448;18.824;2024-02-23T04:12:55;38.87;35.83;51.84;;
67398;Laerm;57728;50.448;18.824;2024-02-23T04:14:56;39.12;36.06;60.01;;
67398;Laerm;57728;50.448;18.824;2024-02-23T04:16:58;39.08;35.94;43.94;;
67398;Laerm;57728;50.448;18.824;2024-02-23T04:18:59;38.79;36.10;50.35;;
67398;Laerm;57728;50.448;18.824;2024-02-23T04:21:00;39.24;35.98;55.86;;
67398;Laerm;57728;50.448;18.824;2024-02-23T04:23:02;39.62;36.01;55.27;;
67398;Laerm;57728;50.448;18.824;2024-02-23T04:25:04;39.50;36.49;44.32;;
67398;Laerm;57728;50.448;18.824;2024-02-23T04:27:07;39.74;36.07;55.98;;
67398;Laerm;57728;50.448;18.824;2024-02-23T04:29:09;39.54;35.96;53.94;;
67398;Laerm;57728;50.448;18.824;2024-02-23T04:31:11;39.69;36.27;46.99;;
67398;Laerm;57728;50.448;18.824;2024-02-23T04:33:12;39.61;36.31;47.11;;
67398;Laerm;57728;50.448;18.824;2024-02-23T04:35:14;39.45;36.26;44.01;;
67398;Laerm;57728;50.448;18.824;2024-02-23T04:37:16;39.80;36.35;53.71;;
67398;Laerm;57728;50.448;18.824;2024-02-23T04:39:17;39.54;36.41;52.71;;
67398;Laerm;57728;50.448;18.824;2024-02-23T04:41:20;39.83;36.40;51.85;;
67398;Laerm;57728;50.448;18.824;2024-02-23T04:43:25;39.73;36.24;53.13;;
67398;Laerm;57728;50.448;18.824;2024-02-23T04:45:26;40.55;36.43;59.56;;
67398;Laerm;57728;50.448;18.824;2024-02-23T04:47:28;39.89;35.74;51.00;;
67398;Laerm;57728;50.448;18.824;2024-02-23T04:49:29;40.00;36.27;49.56;;
67398;Laerm;57728;50.448;18.824;2024-02-23T04:51:30;40.15;36.47;48.38;;
67398;Laerm;57728;50.448;18.824;2024-02-23T04:53:36;39.85;36.51;46.22;;
67398;Laerm;57728;50.448;18.824;2024-02-23T04:55:38;39.91;36.33;49.66;;
67398;Laerm;57728;50.448;18.824;2024-02-23T04:57:39;39.97;36.32;50.31;;
67398;Laerm;57728;50.448;18.824;2024-02-23T04:59:42;40.35;36.65;48.76;;
67398;Laerm;57728;50.448;18.824;2024-02-23T05:01:44;40.34;36.56;52.24;;
67398;Laerm;57728;50.448;18.824;2024-02-23T05:03:45;40.31;36.74;53.38;;
67398;Laerm;57728;50.448;18.824;2024-02-23T05:05:47;40.00;36.15;47.81;;
67398;Laerm;57728;50.448;18.824;2024-02-23T05:07:48;40.09;36.40;54.32;;
67398;Laerm;57728;50.448;18.824;2024-02-23T05:09:49;40.20;36.55;54.32;;
67398;Laerm;57728;50.448;18.824;2024-02-23T05:11:51;40.43;37.00;47.29;;
67398;Laerm;57728;50.448;18.824;2024-02-23T05:13:52;40.51;37.08;46.48;;
67398;Laerm;57728;50.448;18.824;2024-02-23T05:15:55;40.62;36.77;51.21;;
67398;Laerm;57728;50.448;18.824;2024-02-23T05:17:59;40.73;36.56;48.59;;
67398;Laerm;57728;50.448;18.824;2024-02-23T05:20:00;40.73;36.84;60.86;;
67398;Laerm;57728;50.448;18.824;2024-02-23T05:22:07;40.63;36.92;48.54;;
67398;Laerm;57728;50.448;18.824;2024-02-23T05:24:11;40.56;37.34;47.71;;
67398;Laerm;57728;50.448;18.824;2024-02-23T05:26:12;40.64;37.08;51.09;;
67398;Laerm;57728;50.448;18.824;2024-02-23T05:28:13;40.91;36.61;48.99;;
67398;Laerm;57728;50.448;18.824;2024-02-23T05:30:15;41.04;37.00;47.29;;
67398;Laerm;57728;50.448;18.824;2024-02-23T05:32:16;41.65;36.98;48.41;;
67398;Laerm;57728;50.448;18.824;2024-02-23T05:34:21;41.14;37.00;54.43;;
67398;Laerm;57728;50.448;18.824;2024-02-23T05:36:22;41.23;37.35;55.99;;
67398;Laerm;57728;50.448;18.824;2024-02-23T05:38:24;40.76;36.73;50.26;;
67398;Laerm;57728;50.448;18.824;2024-02-23T05:40:25;40.58;36.72;50.10;;
67398;Laerm;57728;50.448;18.824;2024-02-23T05:42:26;40.49;36.84;51.58;;
67398;Laerm;57728;50.448;18.824;2024-02-23T05:44:28;40.87;37.21;48.24;;
67398;Laerm;57728;50.448;18.824;2024-02-23T05:46:29;41.40;37.32;48.38;;
67398;Laerm;57728;50.448;18.824;2024-02-23T05:48:31;41.13;36.85;56.42;;
67398;Laerm;57728;50.448;18.824;2024-02-23T05:50:32;41.88;37.07;68.26;;
67398;Laerm;57728;50.448;18.824;2024-02-23T05:52:33;41.02;37.23;65.49;;
67398;Laerm;57728;50.448;18.824;2024-02-23T05:54:35;40.97;37.14;53.40;;
67398;Laerm;57728;50.448;18.824;2024-02-23T05:56:36;40.92;37.26;57.40;;
67398;Laerm;57728;50.448;18.824;2024-02-23T05:58:38;40.88;37.16;48.40;;
67398;Laerm;57728;50.448;18.824;2024-02-23T06:00:40;41.32;36.92;62.74;;
67398;Laerm;57728;50.448;18.824;2024-02-23T06:02:41;40.94;36.77;52.59;;
67398;Laerm;57728;50.448;18.824;2024-02-23T06:04:42;41.36;37.12;64.27;;
67398;Laerm;57728;50.448;18.824;2024-02-23T06:06:44;41.03;37.13;51.38;;
67398;Laerm;57728;50.448;18.824;2024-02-23T06:08:46;41.46;36.98;67.17;;
67398;Laerm;57728;50.448;18.824;2024-02-23T06:10:47;40.80;36.97;53.36;;
67398;Laerm;57728;50.448;18.824;2024-02-23T06:12:49;41.05;37.30;57.42;;
67398;Laerm;57728;50.448;18.824;2024-02-23T06:14:51;41.13;37.02;53.52;;
67398;Laerm;57728;50.448;18.824;2024-02-23T06:16:52;41.90;37.18;67.83;;
67398;Laerm;57728;50.448;18.824;2024-02-23T06:18:54;41.73;37.43;63.75;;
67398;Laerm;57728;50.448;18.824;2024-02-23T06:20:55;41.44;37.06;54.25;;
67398;Laerm;57728;50.448;18.824;2024-02-23T06:22:57;41.32;37.24;58.22;;
67398;Laerm;57728;50.448;18.824;2024-02-23T06:24:59;41.41;37.41;50.56;;
67398;Laerm;57728;50.448;18.824;2024-02-23T06:27:00;41.27;37.34;53.43;;
67398;Laerm;57728;50.448;18.824;2024-02-23T06:29:01;41.53;37.56;63.10;;
67398;Laerm;57728;50.448;18.824;2024-02-23T06:31:04;41.18;37.30;53.95;;
67398;Laerm;57728;50.448;18.824;2024-02-23T06:33:05;41.32;37.25;57.97;;
67398;Laerm;57728;50.448;18.824;2024-02-23T06:35:08;41.35;37.61;54.98;;
67398;Laerm;57728;50.448;18.824;2024-02-23T06:37:10;41.22;37.10;54.09;;
67398;Laerm;57728;50.448;18.824;2024-02-23T06:39:11;41.27;37.02;49.42;;
67398;Laerm;57728;50.448;18.824;2024-02-23T06:41:12;41.35;37.01;53.35;;
67398;Laerm;57728;50.448;18.824;2024-02-23T06:43:15;40.90;36.80;52.01;;
67398;Laerm;57728;50.448;18.824;2024-02-23T06:45:16;41.10;37.26;51.45;;
67398;Laerm;57728;50.448;18.824;2024-02-23T06:47:17;41.35;37.33;59.18;;
67398;Laerm;57728;50.448;18.824;2024-02-23T06:49:19;41.17;37.38;49.79;;
67398;Laerm;57728;50.448;18.824;2024-02-23T06:51:20;40.98;37.39;54.24;;
67398;Laerm;57728;50.448;18.824;2024-02-23T06:53:21;41.30;37.36;50.76;;
67398;Laerm;57728;50.448;18.824;2024-02-23T06:55:23;41.57;37.53;52.88;;
67398;Laerm;57728;50.448;18.824;2024-02-23T06:57:24;41.56;37.53;52.26;;
67398;Laerm;57728;50.448;18.824;2024-02-23T06:59:26;41.44;37.57;50.65;;
67398;Laerm;57728;50.448;18.824;2024-02-23T07:01:28;41.71;37.36;49.60;;
67398;Laerm;57728;50.448;18.824;2024-02-23T07:03:29;41.86;37.58;49.37;;
67398;Laerm;57728;50.448;18.824;2024-02-23T07:05:31;43.54;37.80;72.50;;
67398;Laerm;57728;50.448;18.824;2024-02-23T07:07:35;41.44;37.30;48.29;;
67398;Laerm;57728;50.448;18.824;2024-02-23T07:09:36;42.05;37.38;62.66;;
67398;Laerm;57728;50.448;18.824;2024-02-23T07:11:38;42.44;36.93;51.82;;
67398;Laerm;57728;50.448;18.824;2024-02-23T07:13:43;41.45;37.85;53.17;;
67398;Laerm;57728;50.448;18.824;2024-02-23T07:15:46;41.24;37.43;51.97;;
67398;Laerm;57728;50.448;18.824;2024-02-23T07:17:47;41.58;37.51;63.52;;
67398;Laerm;57728;50.448;18.824;2024-02-23T07:19:50;41.75;37.73;49.65;;
67398;Laerm;57728;50.448;18.824;2024-02-23T07:21:52;42.36;37.78;68.66;;
67398;Laerm;57728;50.448;18.824;2024-02-23T07:23:53;43.66;37.43;73.24;;
67398;Laerm;57728;50.448;18.824;2024-02-23T07:25:55;42.18;37.12;66.04;;
67398;Laerm;57728;50.448;18.824;2024-02-23T07:27:56;42.04;37.88;61.06;;
67398;Laerm;57728;50.448;18.824;2024-02-23T07:29:57;41.74;38.00;55.27;;
67398;Laerm;57728;50.448;18.824;2024-02-23T07:31:59;42.02;37.69;55.19;;
67398;Laerm;57728;50.448;18.824;2024-02-23T07:34:00;41.08;37.20;52.90;;
67398;Laerm;57728;50.448;18.824;2024-02-23T07:36:02;41.18;37.56;53.19;;
67398;Laerm;57728;50.448;18.824;2024-02-23T07:38:04;41.62;37.89;52.95;;
67398;Laerm;57728;50.448;18.824;2024-02-23T07:40:06;41.53;37.42;52.01;;
67398;Laerm;57728;50.448;18.824;2024-02-23T07:42:07;42.03;37.60;69.41;;
67398;Laerm;57728;50.448;18.824;2024-02-23T07:44:11;41.53;37.82;46.96;;
67398;Laerm;57728;50.448;18.824;2024-02-23T07:46:13;41.82;37.80;47.22;;
67398;Laerm;57728;50.448;18.824;2024-02-23T07:48:14;41.79;37.09;53.36;;
67398;Laerm;57728;50.448;18.824;2024-02-23T07:50:15;42.04;38.25;48.07;;
67398;Laerm;57728;50.448;18.824;2024-02-23T07:52:19;41.83;37.54;51.35;;
67398;Laerm;57728;50.448;18.824;2024-02-23T07:54:20;41.61;37.71;45.57;;
67398;Laerm;57728;50.448;18.824;2024-02-23T07:56:22;41.49;37.44;47.54;;
67398;Laerm;57728;50.448;18.824;2024-02-23T07:58:23;41.37;37.67;54.02;;
67398;Laerm;57728;50.448;18.824;2024-02-23T08:00:24;41.71;37.52;54.30;;
67398;Laerm;57728;50.448;18.824;2024-02-23T08:02:26;41.79;37.38;60.21;;
67398;Laerm;57728;50.448;18.824;2024-02-23T08:04:27;41.47;37.52;53.31;;
67398;Laerm;57728;50.448;18.824;2024-02-23T08:06:30;41.28;37.46;50.23;;
67398;Laerm;57728;50.448;18.824;2024-02-23T08:08:32;41.47;37.54;48.71;;
67398;Laerm;57728;50.448;18.824;2024-02-23T08:10:36;41.81;37.36;52.06;;
67398;Laerm;57728;50.448;18.824;2024-02-23T08:12:40;42.01;37.68;51.44;;
67398;Laerm;57728;50.448;18.824;2024-02-23T08:14:43;41.72;37.31;56.65;;
67398;Laerm;57728;50.448;18.824;2024-02-23T08:16:44;42.44;37.65;57.74;;
67398;Laerm;57728;50.448;18.824;2024-02-23T08:18:48;41.62;37.68;63.02;;
67398;Laerm;57728;50.448;18.824;2024-02-23T08:20:51;42.00;37.61;56.19;;
67398;Laerm;57728;50.448;18.824;2024-02-23T08:22:52;42.42;37.74;48.71;;
67398;Laerm;57728;50.448;18.824;2024-02-23T08:24:53;41.88;37.68;52.21;;
67398;Laerm;57728;50.448;18.824;2024-02-23T08:26:55;42.22;37.86;52.13;;
67398;Laerm;57728;50.448;18.824;2024-02-23T08:28:56;42.18;38.55;49.98;;
67398;Laerm;57728;50.448;18.824;2024-02-23T08:30:57;42.13;38.05;48.76;;
67398;Laerm;57728;50.448;18.824;2024-02-23T08:32:59;42.20;37.87;58.32;;
67398;Laerm;57728;50.448;18.824;2024-02-23T08:35:00;42.99;37.46;71.68;;
67398;Laerm;57728;50.448;18.824;2024-02-23T08:37:01;42.19;38.29;45.03;;
67398;Laerm;57728;50.448;18.824;2024-02-23T08:39:04;42.32;37.80;49.32;;
67398;Laerm;57728;50.448;18.824;2024-02-23T08:41:05;42.06;38.24;49.05;;
67398;Laerm;57728;50.448;18.824;2024-02-23T08:43:06;41.60;37.30;50.69;;
67398;Laerm;57728;50.448;18.824;2024-02-23T08:45:08;41.23;37.33;53.86;;
67398;Laerm;57728;50.448;18.824;2024-02-23T08:47:13;41.28;37.44;56.38;;
67398;Laerm;57728;50.448;18.824;2024-02-23T08:49:14;40.81;37.31;46.48;;
67398;Laerm;57728;50.448;18.824;2024-02-23T08:51:16;41.05;37.16;48.49;;
67398;Laerm;57728;50.448;18.824;2024-02-23T08:53:17;41.50;36.95;55.87;;
67398;Laerm;57728;50.448;18.824;2024-02-23T08:55:18;40.86;37.05;48.96;;
67398;Laerm;57728;50.448;18.824;2024-02-23T08:57:22;40.54;37.18;44.21;;
67398;Laerm;57728;50.448;18.824;2024-02-23T08:59:24;40.98;37.35;53.42;;
67398;Laerm;57728;50.448;18.824;2024-02-23T09:01:25;41.24;37.01;55.86;;
67398;Laerm;57728;50.448;18.824;2024-02-23T09:03:27;41.63;37.44;53.57;;
67398;Laerm;57728;50.448;18.824;2024-02-23T09:05:28;41.06;37.25;49.34;;
67398;Laerm;57728;50.448;18.824;2024-02-23T09:07:29;40.94;37.20;49.59;;
67398;Laerm;57728;50.448;18.824;2024-02-23T09:09:34;41.26;37.23;52.06;;
67398;Laerm;57728;50.448;18.824;2024-02-23T09:11:35;41.93;37.29;56.07;;
67398;Laerm;57728;50.448;18.824;2024-02-23T09:13:37;41.45;37.45;48.07;;
67398;Laerm;57728;50.448;18.824;2024-02-23T09:15:39;41.76;37.29;56.83;;
67398;Laerm;57728;50.448;18.824;2024-02-23T09:17:42;43.10;37.95;61.70;;
67398;Laerm;57728;50.448;18.824;2024-02-23T09:19:44;42.44;37.74;59.60;;
67398;Laerm;57728;50.448;18.824;2024-02-23T09:21:46;41.81;37.36;54.57;;
67398;Laerm;57728;50.448;18.824;2024-02-23T09:23:47;42.10;37.60;49.35;;
67398;Laerm;57728;50.448;18.824;2024-02-23T09:25:48;42.59;38.07;49.88;;
67398;Laerm;57728;50.448;18.824;2024-02-23T09:27:50;42.04;37.49;49.85;;
67398;Laerm;57728;50.448;18.824;2024-02-23T09:29:53;42.22;37.59;51.94;;
67398;Laerm;57728;50.448;18.824;2024-02-23T09:31:54;42.34;37.31;57.23;;
67398;Laerm;57728;50.448;18.824;2024-02-23T09:33:57;42.61;37.99;58.75;;
67398;Laerm;57728;50.448;18.824;2024-02-23T09:35:59;42.76;37.45;54.83;;
67398;Laerm;57728;50.448;18.824;2024-02-23T09:38:00;42.79;37.88;62.10;;
67398;Laerm;57728;50.448;18.824;2024-02-23T09:40:01;43.20;38.76;58.78;;
67398;Laerm;57728;50.448;18.824;2024-02-23T09:42:09;43.54;38.73;47.25;;
67398;Laerm;57728;50.448;18.824;2024-02-23T09:44:13;43.74;38.54;47.51;;
67398;Laerm;57728;50.448;18.824;2024-02-23T09:46:17;43.48;38.75;50.46;;
67398;Laerm;57728;50.448;18.824;2024-02-23T09:48:22;43.78;38.79;53.78;;
67398;Laerm;57728;50.448;18.824;2024-02-23T09:50:25;43.33;37.74;52.10;;
67398;Laerm;57728;50.448;18.824;2024-02-23T09:52:29;42.53;37.55;53.34;;
67398;Laerm;57728;50.448;18.824;2024-02-23T09:54:32;41.23;37.32;55.27;;
67398;Laerm;57728;50.448;18.824;2024-02-23T09:56:34;40.43;36.95;49.00;;
67398;Laerm;57728;50.448;18.824;2024-02-23T09:58:41;39.79;36.65;50.96;;
67398;Laerm;57728;50.448;18.824;2024-02-23T10:00:43;39.62;36.24;48.38;;
67398;Laerm;57728;50.448;18.824;2024-02-23T10:02:45;39.62;36.43;47.90;;
67398;Laerm;57728;50.448;18.824;2024-02-23T10:04:51;39.30;35.60;55.49;;
67398;Laerm;57728;50.448;18.824;2024-02-23T10:06:54;38.92;36.08;47.40;;
67398;Laerm;57728;50.448;18.824;2024-02-23T10:08:55;39.20;36.31;48.02;;
67398;Laerm;57728;50.448;18.824;2024-02-23T10:10:57;39.55;36.89;48.90;;
67398;Laerm;57728;50.448;18.824;2024-02-23T10:13:01;39.69;36.41;48.78;;
67398;Laerm;57728;50.448;18.824;2024-02-23T10:15:03;39.86;36.23;47.96;;
67398;Laerm;57728;50.448;18.824;2024-02-23T10:17:06;40.71;36.36;58.93;;
67398;Laerm;57728;50.448;18.824;2024-02-23T10:19:07;39.84;36.78;43.70;;
67398;Laerm;57728;50.448;18.824;2024-02-23T10:21:08;39.74;36.65;45.67;;
67398;Laerm;57728;50.448;18.824;2024-02-23T10:23:11;39.88;36.67;49.16;;
67398;Laerm;57728;50.448;18.824;2024-02-23T10:25:12;39.87;36.50;55.24;;
67398;Laerm;57728;50.448;18.824;2024-02-23T10:27:14;39.73;36.28;46.50;;
67398;Laerm;57728;50.448;18.824;2024-02-23T10:29:15;40.28;36.37;54.78;;
67398;Laerm;57728;50.448;18.824;2024-02-23T10:31:18;40.55;36.78;57.92;;
67398;Laerm;57728;50.448;18.824;2024-02-23T10:33:23;39.86;36.67;46.15;;
67398;Laerm;57728;50.448;18.824;2024-02-23T10:35:31;40.24;37.00;47.25;;
67398;Laerm;57728;50.448;18.824;2024-02-23T10:37:34;40.14;36.41;45.40;;
67398;Laerm;57728;50.448;18.824;2024-02-23T10:39:37;39.81;36.41;47.78;;
67398;Laerm;57728;50.448;18.824;2024-02-23T10:42:03;40.53;36.50;59.45;;
67398;Laerm;57728;50.448;18.824;2024-02-23T10:44:07;38.80;35.90;48.67;;
67398;Laerm;57728;50.448;18.824;2024-02-23T10:46:12;39.36;36.17;42.76;;
67398;Laerm;57728;50.448;18.824;2024-02-23T10:48:17;40.14;36.63;52.11;;
67398;Laerm;57728;50.448;18.824;2024-02-23T10:50:20;39.59;36.30;51.18;;
67398;Laerm;57728;50.448;18.824;2024-02-23T10:52:23;38.89;36.07;43.64;;
67398;Laerm;57728;50.448;18.824;2024-02-23T10:54:26;41.05;37.10;46.44;;
67398;Laerm;57728;50.448;18.824;2024-02-23T10:56:27;40.80;36.69;46.08;;
67398;Laerm;57728;50.448;18.824;2024-02-23T10:58:32;39.23;36.50;47.33;;
67398;Laerm;57728;50.448;18.824;2024-02-23T11:00:34;38.83;35.75;50.21;;
67398;Laerm;57728;50.448;18.824;2024-02-23T11:02:46;38.55;35.89;48.53;;
67398;Laerm;57728;50.448;18.824;2024-02-23T11:04:50;38.50;36.13;44.78;;
67398;Laerm;57728;50.448;18.824;2024-02-23T11:06:55;39.03;35.73;44.26;;
67398;Laerm;57728;50.448;18.824;2024-02-23T11:09:07;39.20;36.63;42.95;;
67398;Laerm;57728;50.448;18.824;2024-02-23T11:11:11;39.74;37.53;48.30;;
67398;Laerm;57728;50.448;18.824;2024-02-23T11:13:15;39.54;36.54;48.62;;